Time;durP1;ratioP1;P1;durP2;ratioP2;P2;SDS_P1;SDS_P2;PMS_P1;PMS_P2;Temp;Humidity;BMP_temperature;BMP_pressure;BME280_temperature;BME280_humidity;BME280_pressure;Samples;Min_cycle;Max_cycle;Signal;HPM_P1;HPM_P2
2021/12/16 00:04:32;;;;;;;34.27;21.83;;;10.30;99.90;;;;;;637534;226;26596;-82
2021/12/16 00:06:52;;;;;;;34.10;21.83;;;10.20;99.90;;;;;;635542;225;26577;-83
2021/12/16 00:08:55;;;;;;;35.57;23.47;;;10.20;99.90;;;;;;635519;226;26575;-84
2021/12/16 00:19:25;;;;;;;33.90;22.77;;;10.20;99.90;;;;;;636683;226;26560;-84
2021/12/16 00:32:04;;;;;;;36.30;24.00;;;10.10;99.90;;;;;;638086;225;27174;-84
2021/12/16 00:34:24;;;;;;;36.00;23.17;;;10.10;99.90;;;;;;637473;225;26500;-83
2021/12/16 00:36:51;;;;;;;37.67;24.03;;;10.00;99.90;;;;;;637757;225;27181;-83
2021/12/16 00:39:18;;;;;;;44.70;25.43;;;10.00;99.90;;;;;;647348;222;26576;-83
2021/12/16 00:41:49;;;;;;;38.03;23.57;;;10.10;99.90;;;;;;642172;220;26578;-81
2021/12/16 00:49:37;;;;;;;38.33;24.87;;;9.90;99.90;;;;;;638998;225;26530;-82
2021/12/16 00:54:34;;;;;;;38.63;26.17;;;9.80;99.90;;;;;;639243;225;26491;-82
2021/12/16 00:57:06;;;;;;;42.47;26.10;;;9.80;99.90;;;;;;638961;226;26587;-82
2021/12/16 00:59:32;;;;;;;43.50;25.20;;;10.10;99.90;;;;;;638310;226;26849;-82
2021/12/16 01:02:10;;;;;;;39.10;24.80;;;10.10;99.90;;;;;;638304;226;26809;-83
2021/12/16 01:04:52;;;;;;;38.80;24.50;;;9.90;99.90;;;;;;637446;223;26565;-82
2021/12/16 01:07:11;;;;;;;47.30;26.67;;;9.90;99.90;;;;;;636430;226;26542;-82
2021/12/16 01:10:27;;;;;;;43.33;25.83;;;9.60;99.90;;;;;;636204;226;26782;-80
2021/12/16 01:35:41;;;;;;;53.13;30.53;;;9.10;99.90;;;;;;641693;220;26578;-87
2021/12/16 01:41:40;;;;;;;50.47;27.97;;;9.10;99.90;;;;;;629189;221;26575;-87
2021/12/16 01:46:32;;;;;;;53.53;29.47;;;9.00;99.90;;;;;;652093;221;26848;-87
2021/12/16 01:49:06;;;;;;;45.63;26.70;;;8.80;99.90;;;;;;649732;221;26523;-87
2021/12/16 01:51:16;;;;;;;44.57;26.43;;;9.10;99.90;;;;;;649643;221;26510;-87
2021/12/16 01:54:01;;;;;;;52.70;28.70;;;9.20;99.90;;;;;;650380;221;26526;-87
2021/12/16 01:56:10;;;;;;;52.67;29.23;;;9.60;99.90;;;;;;649659;221;26502;-87
2021/12/16 01:58:32;;;;;;;54.67;30.37;;;9.70;99.90;;;;;;650753;221;26518;-87
2021/12/16 02:01:11;;;;;;;52.30;29.20;;;9.50;99.90;;;;;;651460;221;26511;-86
2021/12/16 02:03:37;;;;;;;46.37;26.80;;;9.50;99.90;;;;;;650524;221;26499;-87
2021/12/16 02:06:04;;;;;;;46.40;26.37;;;9.40;99.90;;;;;;650441;221;26571;-87
2021/12/16 02:08:25;;;;;;;39.17;24.53;;;9.40;99.90;;;;;;650488;221;26777;-86
2021/12/16 02:11:00;;;;;;;39.20;25.10;;;9.40;99.90;;;;;;651082;221;26505;-87
2021/12/16 02:13:39;;;;;;;40.43;24.00;;;9.30;99.90;;;;;;650398;221;26804;-87
2021/12/16 02:28:48;;;;;;;23.20;15.83;;;9.10;99.90;;;;;;651296;221;26524;-87
2021/12/16 02:31:21;;;;;;;24.70;17.40;;;9.10;99.90;;;;;;649985;221;26564;-87
2021/12/16 02:33:50;;;;;;;26.00;15.83;;;9.10;99.90;;;;;;649569;221;26868;-87
2021/12/16 02:36:12;;;;;;;24.67;15.87;;;9.10;99.90;;;;;;649646;221;26545;-87
2021/12/16 02:38:29;;;;;;;23.73;15.10;;;9.10;99.90;;;;;;650098;221;26546;-87
2021/12/16 02:40:54;;;;;;;22.00;14.90;;;9.30;99.90;;;;;;651610;218;27003;-87
2021/12/16 02:43:51;;;;;;;19.33;14.30;;;9.30;99.90;;;;;;653407;215;26505;-87
2021/12/16 02:48:29;;;;;;;19.97;14.30;;;9.10;99.90;;;;;;652289;220;26586;-86
2021/12/16 02:50:55;;;;;;;23.13;14.83;;;9.10;99.90;;;;;;652182;220;26552;-87
2021/12/16 02:53:23;;;;;;;25.20;13.20;;;9.30;99.90;;;;;;651904;221;26566;-86
2021/12/16 02:55:51;;;;;;;19.03;13.23;;;9.30;99.90;;;;;;651979;221;26553;-87
2021/12/16 02:58:19;;;;;;;18.67;12.53;;;9.30;99.90;;;;;;651964;221;26566;-87
2021/12/16 03:00:46;;;;;;;16.03;12.37;;;9.30;99.90;;;;;;651708;216;26554;-87
2021/12/16 03:03:14;;;;;;;15.70;12.43;;;9.20;99.90;;;;;;651258;221;26519;-87
2021/12/16 03:05:41;;;;;;;22.30;13.17;;;9.20;99.90;;;;;;651625;221;26794;-85
2021/12/16 03:08:08;;;;;;;18.60;13.63;;;9.20;99.90;;;;;;651630;221;26518;-87
2021/12/16 03:11:02;;;;;;;19.77;12.30;;;9.20;99.90;;;;;;651651;221;26884;-86
2021/12/16 03:13:38;;;;;;;18.03;11.77;;;9.10;99.90;;;;;;650160;221;26766;-87
2021/12/16 03:16:12;;;;;;;17.67;11.70;;;9.10;99.90;;;;;;651252;221;26514;-87
2021/12/16 03:18:38;;;;;;;15.57;11.13;;;9.00;99.90;;;;;;650372;221;26573;-87
2021/12/16 03:21:02;;;;;;;18.63;12.37;;;9.10;99.90;;;;;;650551;221;26564;-86
2021/12/16 03:23:39;;;;;;;14.47;10.97;;;9.10;99.90;;;;;;650946;221;26520;-86
2021/12/16 03:26:11;;;;;;;17.13;10.97;;;9.10;99.90;;;;;;650236;221;26859;-87
2021/12/16 03:28:47;;;;;;;15.53;10.77;;;9.10;99.90;;;;;;649822;221;26512;-87
2021/12/16 03:31:04;;;;;;;13.97;10.33;;;9.20;99.90;;;;;;649408;221;26577;-87
2021/12/16 03:36:13;;;;;;;14.93;10.70;;;9.20;99.90;;;;;;629260;221;26777;-87
2021/12/16 03:38:34;;;;;;;15.20;10.93;;;9.10;99.90;;;;;;650639;221;26548;-87
2021/12/16 03:41:01;;;;;;;17.73;11.13;;;9.00;99.90;;;;;;651366;221;26534;-87
2021/12/16 03:43:30;;;;;;;16.33;12.27;;;9.00;99.90;;;;;;651383;221;26788;-86
2021/12/16 03:48:29;;;;;;;15.67;11.33;;;9.20;99.90;;;;;;651263;221;26524;-87
2021/12/16 03:50:56;;;;;;;19.57;11.97;;;9.20;99.90;;;;;;651184;221;26505;-87
2021/12/16 03:53:24;;;;;;;16.27;11.60;;;9.30;99.90;;;;;;652218;218;27254;-87
2021/12/16 03:55:51;;;;;;;17.30;10.53;;;9.30;99.90;;;;;;652853;220;26783;-87
2021/12/16 03:58:18;;;;;;;15.57;10.77;;;9.20;99.90;;;;;;652409;220;26784;-87
2021/12/16 04:00:45;;;;;;;17.23;10.73;;;9.10;99.90;;;;;;652240;220;26586;-86
2021/12/16 04:03:12;;;;;;;17.47;11.87;;;9.30;99.90;;;;;;651763;220;26778;-86
2021/12/16 04:05:40;;;;;;;14.53;10.87;;;9.30;99.90;;;;;;651914;221;26565;-87
2021/12/16 04:08:08;;;;;;;14.77;11.07;;;9.30;99.90;;;;;;651826;221;26598;-86
2021/12/16 04:10:37;;;;;;;15.23;10.60;;;9.10;99.90;;;;;;651751;221;26582;-87
2021/12/16 04:13:05;;;;;;;12.27;10.10;;;9.10;99.90;;;;;;651326;221;26534;-87
2021/12/16 04:15:32;;;;;;;15.23;10.17;;;9.00;99.90;;;;;;651589;221;26517;-88
2021/12/16 04:17:59;;;;;;;20.27;11.93;;;9.00;99.90;;;;;;651612;221;26543;-86
2021/12/16 04:20:27;;;;;;;17.37;10.80;;;9.00;99.90;;;;;;651632;217;26542;-86
2021/12/16 04:22:54;;;;;;;14.77;10.87;;;9.10;99.90;;;;;;651693;221;26768;-87
2021/12/16 04:25:23;;;;;;;14.57;10.63;;;9.20;99.90;;;;;;651658;221;26502;-87
2021/12/16 04:27:53;;;;;;;14.10;10.27;;;9.10;99.90;;;;;;651365;221;26526;-86
2021/12/16 04:30:19;;;;;;;16.00;11.23;;;9.20;99.90;;;;;;651149;221;26599;-87
2021/12/16 04:32:47;;;;;;;14.73;10.77;;;9.30;99.90;;;;;;651295;216;26505;-87
2021/12/16 04:35:15;;;;;;;15.27;10.73;;;9.30;99.90;;;;;;651353;221;26581;-87
2021/12/16 04:37:42;;;;;;;16.27;10.47;;;9.40;99.90;;;;;;651273;221;26519;-87
2021/12/16 04:40:09;;;;;;;14.37;10.57;;;9.40;99.90;;;;;;651299;221;26863;-87
2021/12/16 04:42:37;;;;;;;19.80;11.47;;;9.20;99.90;;;;;;651265;221;26513;-87
2021/12/16 04:45:04;;;;;;;18.07;11.93;;;9.10;99.90;;;;;;651304;221;26624;-79
2021/12/16 04:47:32;;;;;;;18.63;11.73;;;9.10;99.90;;;;;;651202;221;26561;-79
2021/12/16 04:50:00;;;;;;;13.73;11.10;;;9.40;99.90;;;;;;651224;221;26532;-79
2021/12/16 04:52:28;;;;;;;16.70;11.77;;;9.40;99.90;;;;;;651214;220;26552;-80
2021/12/16 04:54:55;;;;;;;16.83;11.63;;;9.50;99.90;;;;;;651278;221;26554;-79
2021/12/16 04:57:23;;;;;;;13.93;11.73;;;9.20;99.90;;;;;;651354;221;26564;-79
2021/12/16 04:59:50;;;;;;;16.90;11.90;;;9.20;99.90;;;;;;651278;221;26553;-79
2021/12/16 05:02:17;;;;;;;18.70;12.17;;;9.10;99.90;;;;;;651315;221;26793;-79
2021/12/16 05:04:44;;;;;;;16.03;11.83;;;9.10;99.90;;;;;;651683;218;26581;-79
2021/12/16 05:07:12;;;;;;;15.00;11.17;;;9.00;99.90;;;;;;652883;220;26800;-79
2021/12/16 05:10:03;;;;;;;19.73;12.33;;;8.90;99.90;;;;;;652485;220;26584;-79
2021/12/16 05:12:17;;;;;;;18.40;12.63;;;9.00;99.90;;;;;;651030;220;26573;-79
2021/12/16 05:14:44;;;;;;;19.70;13.13;;;9.20;99.90;;;;;;651904;220;26551;-80
2021/12/16 05:17:24;;;;;;;18.47;13.30;;;9.30;99.90;;;;;;651955;221;26800;-79
2021/12/16 05:19:44;;;;;;;17.73;12.67;;;9.20;99.90;;;;;;650716;221;26630;-80
2021/12/16 05:24:38;;;;;;;20.57;14.00;;;9.10;99.90;;;;;;651598;221;26701;-79
2021/12/16 05:27:06;;;;;;;22.53;14.23;;;9.00;99.90;;;;;;651575;221;26530;-79
2021/12/16 05:29:33;;;;;;;24.23;14.33;;;8.90;99.90;;;;;;651424;221;26809;-79
2021/12/16 05:32:01;;;;;;;20.63;14.47;;;8.90;99.90;;;;;;651531;221;26514;-80
2021/12/16 05:34:27;;;;;;;21.63;14.93;;;8.80;99.90;;;;;;651569;221;26787;-79
2021/12/16 05:36:54;;;;;;;26.57;15.23;;;8.60;99.90;;;;;;651530;221;26555;-79
2021/12/16 05:39:21;;;;;;;24.83;15.77;;;8.60;99.90;;;;;;651520;221;27049;-79
2021/12/16 05:41:49;;;;;;;25.20;15.87;;;8.70;99.90;;;;;;651170;221;26561;-79
2021/12/16 05:44:16;;;;;;;27.47;18.10;;;8.70;99.90;;;;;;651191;221;26763;-79
2021/12/16 05:46:44;;;;;;;26.93;17.93;;;8.70;99.90;;;;;;651237;221;26549;-79
2021/12/16 05:49:13;;;;;;;28.10;17.47;;;8.50;99.90;;;;;;651196;221;26558;-80
2021/12/16 05:51:42;;;;;;;23.97;16.30;;;8.30;99.90;;;;;;651113;221;26567;-79
2021/12/16 05:54:08;;;;;;;32.40;18.17;;;8.20;99.90;;;;;;651027;221;26575;-79
2021/12/16 05:56:36;;;;;;;27.13;17.57;;;8.50;99.90;;;;;;651211;221;26569;-79
2021/12/16 05:59:03;;;;;;;26.27;17.73;;;8.50;99.90;;;;;;651169;217;26632;-80
2021/12/16 06:01:30;;;;;;;23.63;17.07;;;8.40;99.90;;;;;;651597;221;26581;-79
2021/12/16 06:03:57;;;;;;;26.53;17.40;;;8.30;99.90;;;;;;651571;221;26754;-80
2021/12/16 06:06:24;;;;;;;27.93;15.93;;;8.10;99.90;;;;;;651649;221;26522;-80
2021/12/16 06:08:52;;;;;;;27.57;16.20;;;8.40;99.90;;;;;;651350;216;26868;-81
2021/12/16 06:11:21;;;;;;;24.90;17.07;;;8.40;99.90;;;;;;651161;221;26565;-80
2021/12/16 06:13:59;;;;;;;29.80;16.90;;;8.30;99.90;;;;;;651071;221;26802;-80
2021/12/16 06:26:38;;;;;;;26.57;16.37;;;8.40;99.90;;;;;;652085;220;26542;-80
2021/12/16 06:28:59;;;;;;;27.40;15.90;;;8.30;99.90;;;;;;651770;217;26582;-82
2021/12/16 06:31:26;;;;;;;27.67;17.47;;;8.30;99.90;;;;;;652002;221;26775;-81
2021/12/16 06:33:53;;;;;;;24.77;16.10;;;8.20;99.90;;;;;;651983;221;26574;-80
2021/12/16 06:36:20;;;;;;;24.57;16.40;;;8.40;99.90;;;;;;651647;221;26972;-80
2021/12/16 06:38:47;;;;;;;26.57;16.17;;;8.50;99.90;;;;;;651623;221;26501;-80
2021/12/16 06:41:15;;;;;;;29.10;16.83;;;8.40;99.90;;;;;;651633;221;27134;-80
2021/12/16 06:43:44;;;;;;;24.77;16.47;;;8.50;99.90;;;;;;651581;221;26499;-80
2021/12/16 06:46:15;;;;;;;20.10;14.60;;;8.60;99.90;;;;;;651491;221;26597;-80
2021/12/16 06:48:41;;;;;;;23.00;15.60;;;8.70;99.90;;;;;;651159;221;26730;-80
2021/12/16 06:51:12;;;;;;;21.57;15.87;;;8.70;99.90;;;;;;651304;221;26603;-80
2021/12/16 06:54:02;;;;;;;31.47;16.50;;;8.60;99.90;;;;;;650838;221;26840;-81
2021/12/16 06:56:27;;;;;;;28.17;16.83;;;8.60;99.90;;;;;;650086;221;26567;-81
2021/12/16 06:59:02;;;;;;;31.23;17.20;;;8.90;99.90;;;;;;650588;221;26591;-80
2021/12/16 07:01:30;;;;;;;28.77;17.93;;;9.00;99.90;;;;;;649927;221;26791;-81
2021/12/16 07:03:48;;;;;;;29.50;16.80;;;8.80;99.90;;;;;;649717;221;26569;-81
2021/12/16 07:06:17;;;;;;;26.20;16.30;;;8.80;99.90;;;;;;651180;221;26517;-81
2021/12/16 07:08:44;;;;;;;25.63;16.20;;;8.70;99.90;;;;;;647764;221;26536;-81
2021/12/16 07:11:12;;;;;;;24.37;16.50;;;9.10;99.90;;;;;;647162;222;26569;-80
2021/12/16 07:13:41;;;;;;;27.23;14.80;;;8.80;99.90;;;;;;647244;222;26512;-80
2021/12/16 07:16:07;;;;;;;24.67;15.90;;;8.80;99.90;;;;;;647113;222;26540;-81
2021/12/16 07:18:34;;;;;;;26.17;16.57;;;8.90;99.90;;;;;;647352;222;26767;-81
2021/12/16 07:21:01;;;;;;;23.73;15.13;;;8.80;99.90;;;;;;647340;222;26507;-81
2021/12/16 07:23:28;;;;;;;26.10;14.50;;;9.00;99.90;;;;;;647328;222;26785;-81
2021/12/16 07:25:58;;;;;;;24.63;14.80;;;8.80;99.90;;;;;;647249;222;26521;-81
2021/12/16 07:28:23;;;;;;;29.43;16.40;;;8.80;99.90;;;;;;648253;220;26778;-81
2021/12/16 07:30:50;;;;;;;26.67;16.13;;;8.80;99.90;;;;;;648770;222;26555;-80
2021/12/16 07:33:17;;;;;;;27.20;16.10;;;8.70;99.90;;;;;;648463;222;26908;-81
2021/12/16 07:35:44;;;;;;;21.83;14.03;;;8.60;99.90;;;;;;648394;222;26510;-85
2021/12/16 07:38:11;;;;;;;24.53;15.47;;;8.50;99.90;;;;;;648039;222;26768;-81
2021/12/16 07:40:39;;;;;;;25.30;16.00;;;8.60;99.90;;;;;;647981;222;26595;-81
2021/12/16 07:43:19;;;;;;;25.63;15.37;;;8.50;99.90;;;;;;647933;222;26597;-81
2021/12/16 07:45:38;;;;;;;21.00;15.47;;;8.50;99.90;;;;;;647133;222;26584;-80
2021/12/16 07:48:05;;;;;;;22.87;15.10;;;8.50;99.90;;;;;;643337;222;26917;-80
2021/12/16 07:50:32;;;;;;;25.60;15.90;;;8.70;99.90;;;;;;640126;222;26585;-80
2021/12/16 07:52:59;;;;;;;23.90;14.83;;;8.70;99.90;;;;;;644564;222;26829;-81
2021/12/16 07:55:27;;;;;;;24.93;15.63;;;8.70;99.90;;;;;;637737;225;26553;-82
2021/12/16 07:57:54;;;;;;;26.57;16.43;;;8.80;99.90;;;;;;641177;222;26848;-81
2021/12/16 08:00:21;;;;;;;23.30;14.80;;;8.60;99.90;;;;;;642104;222;26603;-80
2021/12/16 08:02:48;;;;;;;26.07;15.13;;;8.50;99.90;;;;;;647324;222;26586;-81
2021/12/16 08:05:16;;;;;;;22.17;14.87;;;8.60;99.90;;;;;;648804;221;26553;-81
2021/12/16 08:07:44;;;;;;;28.57;16.23;;;8.70;99.90;;;;;;651044;221;26554;-81
2021/12/16 08:10:12;;;;;;;22.57;15.63;;;8.80;99.90;;;;;;645732;221;26594;-80
2021/12/16 08:12:40;;;;;;;25.53;15.70;;;8.80;99.90;;;;;;647717;221;26570;-81
2021/12/16 08:15:08;;;;;;;24.13;15.80;;;8.80;99.90;;;;;;648439;222;26567;-80
2021/12/16 08:17:35;;;;;;;29.70;15.93;;;9.00;99.90;;;;;;648336;222;27271;-79
2021/12/16 08:20:04;;;;;;;27.47;14.97;;;9.10;99.90;;;;;;647293;218;26587;-81
2021/12/16 08:22:30;;;;;;;23.87;15.30;;;9.20;99.90;;;;;;641473;222;26570;-78
2021/12/16 08:24:58;;;;;;;21.33;14.73;;;9.10;99.90;;;;;;642852;222;26826;-79
2021/12/16 08:27:25;;;;;;;27.50;15.50;;;9.00;99.90;;;;;;643135;222;26555;-79
2021/12/16 08:29:52;;;;;;;28.43;14.97;;;9.00;99.90;;;;;;645422;221;26817;-79
2021/12/16 08:32:20;;;;;;;23.10;14.47;;;9.00;99.90;;;;;;642297;221;26595;-80
2021/12/16 08:34:48;;;;;;;22.67;14.47;;;8.90;99.90;;;;;;643618;221;26828;-81
2021/12/16 08:37:15;;;;;;;19.60;13.87;;;8.80;99.90;;;;;;643923;221;26511;-79
2021/12/16 08:39:43;;;;;;;26.30;13.63;;;8.70;99.90;;;;;;645907;221;26551;-80
2021/12/16 08:42:10;;;;;;;23.13;14.50;;;8.60;99.90;;;;;;639759;225;26502;-80
2021/12/16 08:44:38;;;;;;;23.03;13.87;;;8.60;99.90;;;;;;638419;225;26522;-80
2021/12/16 08:47:06;;;;;;;21.33;13.17;;;8.90;99.90;;;;;;638341;225;26540;-80
2021/12/16 08:49:33;;;;;;;22.33;13.57;;;8.90;99.90;;;;;;637909;225;26579;-79
2021/12/16 08:52:01;;;;;;;19.37;12.80;;;8.90;99.90;;;;;;646328;222;26828;-80
2021/12/16 08:54:28;;;;;;;25.47;13.57;;;9.00;99.90;;;;;;647686;222;26510;-81
2021/12/16 08:56:55;;;;;;;20.90;13.77;;;9.00;99.90;;;;;;647839;222;27225;-80
2021/12/16 08:59:24;;;;;;;22.80;13.53;;;8.80;99.90;;;;;;642325;222;26554;-86
2021/12/16 09:01:49;;;;;;;21.60;13.60;;;8.80;99.90;;;;;;637746;225;26795;-81
2021/12/16 09:04:16;;;;;;;21.63;13.47;;;8.90;99.90;;;;;;637859;225;26537;-79
2021/12/16 09:06:44;;;;;;;20.13;13.50;;;9.00;99.90;;;;;;637813;225;26798;-81
2021/12/16 09:09:11;;;;;;;20.67;14.20;;;9.00;99.90;;;;;;646347;222;26619;-81
2021/12/16 09:11:44;;;;;;;20.73;13.57;;;9.10;99.90;;;;;;647664;220;26768;-80
2021/12/16 09:14:06;;;;;;;19.00;12.73;;;9.10;99.90;;;;;;645893;222;26578;-81
2021/12/16 09:16:34;;;;;;;18.97;13.00;;;9.20;99.90;;;;;;647138;222;26541;-81
2021/12/16 09:19:02;;;;;;;19.10;12.83;;;9.60;99.90;;;;;;643487;222;26548;-81
2021/12/16 09:21:30;;;;;;;17.27;12.97;;;9.60;99.90;;;;;;637541;222;26565;-81
2021/12/16 09:23:58;;;;;;;18.47;12.63;;;9.40;99.90;;;;;;637391;226;26584;-81
2021/12/16 09:26:25;;;;;;;18.50;13.23;;;9.40;99.90;;;;;;646875;222;26508;-81
2021/12/16 09:28:52;;;;;;;19.23;13.40;;;9.30;99.90;;;;;;647263;222;26540;-80
2021/12/16 09:31:19;;;;;;;20.70;13.00;;;9.30;99.90;;;;;;642427;222;26770;-81
2021/12/16 09:33:48;;;;;;;18.73;12.77;;;9.50;99.90;;;;;;644430;222;26487;-80
2021/12/16 09:36:14;;;;;;;21.90;12.47;;;9.50;99.90;;;;;;637383;222;26795;-81
2021/12/16 09:38:41;;;;;;;16.50;12.47;;;9.40;99.90;;;;;;637388;226;26585;-81
2021/12/16 09:41:08;;;;;;;18.73;12.80;;;9.40;99.90;;;;;;637512;226;26893;-81
2021/12/16 09:43:35;;;;;;;18.60;12.63;;;9.50;99.90;;;;;;647958;222;26579;-80
2021/12/16 09:46:03;;;;;;;19.17;12.83;;;9.70;99.90;;;;;;650745;221;26748;-80
2021/12/16 09:48:31;;;;;;;17.17;12.30;;;9.70;99.90;;;;;;651112;221;26726;-81
2021/12/16 09:51:00;;;;;;;23.10;13.57;;;9.80;99.90;;;;;;652320;218;26560;-81
2021/12/16 09:53:26;;;;;;;17.87;12.67;;;9.70;99.90;;;;;;652915;220;26591;-81
2021/12/16 09:56:00;;;;;;;18.83;12.47;;;9.70;99.90;;;;;;652430;220;26513;-80
2021/12/16 09:58:25;;;;;;;22.33;12.83;;;9.70;99.90;;;;;;652125;220;26840;-80
2021/12/16 10:00:52;;;;;;;18.00;11.90;;;9.60;99.90;;;;;;647511;220;26571;-80
2021/12/16 10:03:21;;;;;;;17.37;11.73;;;9.60;99.90;;;;;;638124;225;26536;-81
2021/12/16 10:05:49;;;;;;;15.47;11.63;;;9.60;99.90;;;;;;637955;225;26500;-80
2021/12/16 10:08:17;;;;;;;17.80;12.50;;;9.80;99.90;;;;;;638354;222;26512;-80
2021/12/16 10:10:44;;;;;;;17.00;11.00;;;9.90;99.90;;;;;;640401;222;26536;-80
2021/12/16 10:13:20;;;;;;;17.50;11.13;;;10.10;99.90;;;;;;647584;218;26530;-80
2021/12/16 10:18:22;;;;;;;16.87;11.70;;;9.90;99.90;;;;;;647540;222;26820;-81
2021/12/16 10:20:57;;;;;;;16.10;11.33;;;10.00;99.90;;;;;;647538;220;26607;-80
2021/12/16 10:23:25;;;;;;;14.73;11.17;;;10.20;99.90;;;;;;647630;222;26549;-80
2021/12/16 10:25:53;;;;;;;16.03;10.47;;;9.90;99.90;;;;;;647540;222;26552;-81
2021/12/16 10:28:23;;;;;;;15.93;11.70;;;10.00;99.90;;;;;;647012;222;26814;-80
2021/12/16 10:30:54;;;;;;;16.57;11.20;;;10.20;99.90;;;;;;637270;222;26809;-80
2021/12/16 10:33:24;;;;;;;14.00;10.13;;;10.40;99.90;;;;;;644329;222;26805;-80
2021/12/16 10:35:59;;;;;;;13.63;10.50;;;10.70;99.90;;;;;;646876;222;26507;-80
2021/12/16 10:38:26;;;;;;;13.73;10.17;;;10.70;99.90;;;;;;647095;222;26523;-81
2021/12/16 10:40:54;;;;;;;20.97;14.33;;;10.80;99.90;;;;;;647178;222;26555;-81
2021/12/16 10:43:27;;;;;;;10.70;9.17;;;10.70;99.90;;;;;;647216;222;26519;-81
2021/12/16 10:45:59;;;;;;;10.97;9.13;;;10.70;99.90;;;;;;647212;222;26516;-79
2021/12/16 10:48:31;;;;;;;18.47;9.60;;;10.70;99.90;;;;;;637714;222;27247;-80
2021/12/16 10:51:06;;;;;;;15.20;8.87;;;10.90;99.90;;;;;;637591;221;26547;-80
2021/12/16 10:53:41;;;;;;;13.10;8.00;;;11.10;99.90;;;;;;637338;221;26556;-80
2021/12/16 10:56:09;;;;;;;13.33;8.33;;;11.20;99.90;;;;;;638097;226;26570;-80
2021/12/16 10:58:47;;;;;;;8.67;7.83;;;11.20;99.90;;;;;;637717;226;26825;-81
2021/12/16 11:01:26;;;;;;;7.63;6.70;;;11.30;99.90;;;;;;637528;226;27235;-80
2021/12/16 11:03:54;;;;;;;7.30;5.47;;;10.90;99.90;;;;;;647288;221;27254;-80
2021/12/16 11:06:34;;;;;;;8.53;6.20;;;10.50;99.90;;;;;;649830;221;26477;-80
2021/12/16 11:09:14;;;;;;;9.07;6.90;;;10.50;99.90;;;;;;649308;221;26808;-80
2021/12/16 11:11:41;;;;;;;7.07;6.37;;;10.80;99.90;;;;;;649343;221;26526;-80
2021/12/16 11:14:08;;;;;;;10.73;7.77;;;11.00;99.90;;;;;;639822;221;27176;-80
2021/12/16 11:16:35;;;;;;;7.57;6.87;;;10.90;99.90;;;;;;638186;225;26533;-80
2021/12/16 11:19:03;;;;;;;10.43;6.90;;;11.20;99.90;;;;;;638107;225;26781;-80
2021/12/16 11:21:32;;;;;;;9.10;5.77;;;11.50;99.90;;;;;;637767;225;26585;-82
2021/12/16 11:23:59;;;;;;;6.97;6.27;;;11.10;99.90;;;;;;637796;225;26800;-81
2021/12/16 11:26:26;;;;;;;6.40;5.50;;;10.80;99.90;;;;;;637715;225;27022;-82
2021/12/16 11:28:54;;;;;;;7.00;6.00;;;11.00;99.90;;;;;;641619;222;26563;-81
2021/12/16 11:31:23;;;;;;;7.10;6.30;;;10.90;99.90;;;;;;647563;222;26568;-82
2021/12/16 11:33:48;;;;;;;12.20;6.67;;;10.80;99.90;;;;;;647362;218;26884;-81
2021/12/16 11:36:16;;;;;;;7.10;6.40;;;11.10;99.90;;;;;;639172;222;26584;-81
2021/12/16 11:38:50;;;;;;;7.67;6.60;;;11.00;99.90;;;;;;640864;222;26572;-80
2021/12/16 11:41:19;;;;;;;8.77;7.50;;;10.90;99.90;;;;;;643595;222;26531;-81
2021/12/16 11:43:47;;;;;;;9.57;7.37;;;11.20;99.90;;;;;;637445;226;26838;-81
2021/12/16 11:46:19;;;;;;;8.97;7.10;;;11.00;99.90;;;;;;637510;225;26554;-83
2021/12/16 11:48:46;;;;;;;9.50;7.30;;;11.10;99.90;;;;;;637796;226;26736;-83
2021/12/16 11:51:15;;;;;;;8.70;7.07;;;11.00;99.90;;;;;;637814;226;26534;-81
2021/12/16 11:53:44;;;;;;;7.80;5.67;;;10.90;99.90;;;;;;637822;226;26499;-81
2021/12/16 11:56:11;;;;;;;14.43;11.47;;;10.90;99.90;;;;;;637643;226;26749;-83
2021/12/16 11:58:38;;;;;;;7.37;6.30;;;10.80;99.90;;;;;;637711;222;26538;-82
2021/12/16 12:01:24;;;;;;;6.47;5.37;;;10.90;99.90;;;;;;641783;222;26773;-80
2021/12/16 12:03:51;;;;;;;5.57;4.30;;;11.20;99.90;;;;;;647292;222;26515;-81
2021/12/16 12:06:21;;;;;;;5.43;4.50;;;11.40;99.90;;;;;;647024;222;26523;-80
2021/12/16 12:08:48;;;;;;;6.23;4.47;;;11.40;99.90;;;;;;638268;222;26787;-81
2021/12/16 12:11:16;;;;;;;4.67;4.23;;;11.50;99.90;;;;;;637418;226;26562;-80
2021/12/16 12:13:43;;;;;;;5.37;4.10;;;11.30;99.90;;;;;;644162;220;26514;-78
2021/12/16 12:16:17;;;;;;;4.77;4.33;;;11.30;99.90;;;;;;648910;221;26528;-77
2021/12/16 12:18:47;;;;;;;6.07;4.20;;;10.90;99.90;;;;;;648383;222;26571;-77
2021/12/16 12:21:19;;;;;;;6.50;4.60;;;11.10;99.90;;;;;;648095;222;26542;-78
2021/12/16 12:23:46;;;;;;;4.80;4.27;;;11.30;99.90;;;;;;647901;222;27176;-78
2021/12/16 12:26:16;;;;;;;5.00;4.50;;;11.10;99.90;;;;;;647899;222;26578;-79
2021/12/16 12:28:40;;;;;;;5.63;5.13;;;10.90;99.90;;;;;;648064;217;26826;-79
2021/12/16 12:31:07;;;;;;;6.37;4.87;;;10.60;99.90;;;;;;649084;222;26590;-79
2021/12/16 12:33:34;;;;;;;4.40;4.00;;;10.60;99.90;;;;;;648619;222;26519;-80
2021/12/16 12:36:02;;;;;;;5.57;4.47;;;10.10;99.90;;;;;;648704;222;26507;-79
2021/12/16 12:38:31;;;;;;;5.77;4.70;;;10.00;99.90;;;;;;649037;222;26532;-79
2021/12/16 12:40:58;;;;;;;4.40;4.00;;;10.10;99.90;;;;;;649135;222;26507;-79
2021/12/16 12:43:26;;;;;;;7.03;4.73;;;10.00;99.90;;;;;;649121;222;26491;-80
2021/12/16 12:45:53;;;;;;;6.03;4.53;;;10.10;99.90;;;;;;648928;222;26756;-80
2021/12/16 12:48:20;;;;;;;6.17;4.50;;;10.40;99.90;;;;;;648737;222;26513;-80
2021/12/16 12:50:48;;;;;;;8.27;5.00;;;10.30;99.90;;;;;;648727;222;26797;-79
2021/12/16 12:53:15;;;;;;;5.23;4.73;;;10.40;99.90;;;;;;648513;221;26798;-80
2021/12/16 12:55:42;;;;;;;5.50;4.77;;;10.50;99.90;;;;;;648511;221;26572;-80
2021/12/16 12:58:11;;;;;;;6.43;4.60;;;10.40;99.90;;;;;;648463;222;26790;-80
2021/12/16 13:00:40;;;;;;;4.87;4.43;;;10.60;99.90;;;;;;648347;221;26577;-79
2021/12/16 13:03:07;;;;;;;4.33;3.93;;;10.50;99.90;;;;;;647905;221;26577;-80
2021/12/16 13:05:34;;;;;;;6.50;3.97;;;10.30;99.90;;;;;;648071;221;26534;-79
2021/12/16 13:08:05;;;;;;;5.20;4.50;;;10.60;99.90;;;;;;648412;222;26800;-80
2021/12/16 13:10:34;;;;;;;7.57;4.33;;;10.20;99.90;;;;;;648448;221;26601;-81
2021/12/16 13:13:29;;;;;;;4.13;3.73;;;10.10;99.90;;;;;;648214;221;26589;-77
2021/12/16 13:15:50;;;;;;;4.63;3.53;;;10.10;99.90;;;;;;645145;221;26808;-80
2021/12/16 13:23:38;;;;;;;4.83;3.63;;;9.50;99.90;;;;;;650510;221;26551;-79
2021/12/16 13:26:42;;;;;;;7.47;3.80;;;9.50;99.90;;;;;;651095;219;26569;-79
2021/12/16 13:29:02;;;;;;;5.50;3.50;;;9.50;99.90;;;;;;637580;221;26567;-80
2021/12/16 13:31:25;;;;;;;5.60;3.43;;;9.40;99.90;;;;;;638797;222;26564;-81
2021/12/16 13:33:56;;;;;;;7.00;3.60;;;9.40;99.90;;;;;;638178;225;26573;-80
2021/12/16 13:36:29;;;;;;;6.83;4.20;;;9.40;99.90;;;;;;637830;225;26745;-81
2021/12/16 13:38:47;;;;;;;9.63;4.67;;;9.30;99.90;;;;;;636026;225;26524;-81
2021/12/16 13:41:15;;;;;;;5.80;3.60;;;9.30;99.90;;;;;;638805;222;26713;-80
2021/12/16 13:43:54;;;;;;;6.93;4.33;;;9.30;99.90;;;;;;647248;218;26799;-80
2021/12/16 13:46:33;;;;;;;5.50;4.37;;;9.30;99.90;;;;;;643077;221;26600;-80
2021/12/16 14:00:14;;;;;;;4.03;3.63;;;9.30;99.90;;;;;;648983;222;26622;-81
2021/12/16 14:02:32;;;;;;;6.40;4.00;;;9.20;99.90;;;;;;642393;222;26563;-81
2021/12/16 14:07:29;;;;;;;4.80;3.30;;;9.20;99.90;;;;;;637396;226;26600;-81
2021/12/16 14:10:15;;;;;;;6.63;3.60;;;9.10;99.90;;;;;;637284;226;26825;-81
2021/12/16 14:15:43;;;;;;;7.67;4.77;;;9.00;99.90;;;;;;615200;226;26594;-80
2021/12/16 14:18:10;;;;;;;5.57;3.47;;;9.10;99.90;;;;;;636428;226;26637;-80
2021/12/16 14:23:12;;;;;;;5.60;3.60;;;9.20;99.90;;;;;;637364;226;26803;-81
2021/12/16 14:36:50;;;;;;;5.77;3.63;;;8.70;99.90;;;;;;621375;225;26817;-81
2021/12/16 14:39:02;;;;;;;8.43;3.80;;;8.60;99.90;;;;;;645224;221;26491;-82
2021/12/16 14:47:05;;;;;;;8.93;3.60;;;8.70;99.90;;;;;;628534;222;26568;-82
2021/12/16 14:49:30;;;;;;;4.40;3.77;;;8.60;99.90;;;;;;644944;222;26594;-82
2021/12/16 14:51:59;;;;;;;5.87;3.40;;;8.70;99.90;;;;;;645267;223;26782;-82
2021/12/16 14:54:24;;;;;;;6.63;3.37;;;8.50;99.90;;;;;;645302;223;26606;-82
2021/12/16 14:56:51;;;;;;;5.43;4.00;;;8.40;99.90;;;;;;645093;223;26544;-82
2021/12/16 14:59:19;;;;;;;11.27;4.10;;;8.40;99.90;;;;;;648982;221;26717;-82
2021/12/16 15:01:48;;;;;;;8.10;4.00;;;8.30;99.90;;;;;;651477;221;26521;-81